Date,TemperatureHighF,TemperatureAvgF,TemperatureLowF,DewpointHighF,DewpointAvgF,DewpointLowF,HumidityHigh,HumidityAvg,HumidityLow,PressureMaxIn,PressureMinIn,WindSpeedMaxMPH,WindSpeedAvgMPH,GustSpeedMaxMPH,PrecipitationSumIn
2013-1-1,60.4,49.6,35.2,39.7,26.3,15.3,92,49,20,30.16,30.01,11,4,21,0.00
2013-1-2,66.7,55.8,41.9,27.5,20.5,15.5,53,26,16,30.07,29.95,12,4,20,0.00
2013-1-3,67.7,58.0,45.5,24.7,18.6,12.8,42,22,14,30.09,29.96,12,4,24,0.00
2013-1-4,72.3,53.5,38.1,34.8,22.7,13.5,70,35,11,30.17,30.06,7,1,12,0.00
2013-1-5,65.6,36.4,34.7,42.8,1.3,-99.9,79,46,27,30.20,30.08,6,-248,11,0.00
2013-1-6,56.9,47.4,38.8,49.1,43.2,37.1,99,86,61,30.11,29.94,8,1,15,0.01
2013-1-7,66.5,46.9,33.7,43.4,37.1,32.0,100,74,31,30.04,29.92,5,1,10,0.01
2013-1-8,81.0,55.7,39.5,50.2,40.2,30.1,88,60,23,30.01,29.93,7,1,12,0.00
2013-1-9,66.0,53.5,40.9,54.5,46.5,38.1,92,79,42,30.02,29.91,5,1,10,0.00
2013-1-10,60.7,49.7,35.8,48.3,36.1,23.6,93,64,26,30.03,29.83,9,1,20,0.00
2013-1-11,57.3,41.4,30.3,32.0,27.2,22.9,86,61,29,30.12,29.97,6,0,12,0.00
2013-1-12,59.1,41.6,28.8,29.7,26.4,17.6,89,60,20,30.08,29.98,8,1,14,0.00
2013-1-13,58.9,43.3,30.2,31.7,24.7,11.7,80,52,22,30.10,29.96,9,1,15,0.00
2013-1-14,54.6,45.3,37.0,11.8,7.5,3.2,30,21,14,30.28,30.08,10,4,19,0.00
2013-1-15,64.1,52.1,35.5,33.0,20.5,6.9,61,30,21,30.35,30.23,9,3,17,0.00
2013-1-16,71.3,61.9,47.8,29.7,25.5,20.3,41,26,18,30.27,30.05,14,4,24,0.00
2013-1-17,75.4,66.1,56.8,23.0,19.1,13.7,25,17,11,30.10,29.97,12,5,21,0.00
2013-1-18,74.9,62.6,55.7,22.5,18.4,16.0,23,18,12,30.07,29.98,10,4,20,0.00
2013-1-19,77.4,65.8,57.6,22.9,17.2,13.7,21,16,9,30.09,29.98,11,4,20,0.00
2013-1-20,77.5,59.0,41.7,36.5,20.6,12.5,57,27,9,30.05,29.93,11,3,20,0.00
2013-1-21,80.1,64.9,44.6,24.0,15.7,6.3,42,17,7,30.01,29.91,11,4,20,0.00
2013-1-22,83.2,57.7,42.2,38.0,25.2,8.9,54,34,6,30.00,29.90,7,1,15,0.00
2013-1-23,78.0,60.4,50.3,52.4,37.8,27.1,92,46,20,30.02,29.90,3,0,8,0.03
2013-1-24,63.0,57.0,51.7,57.6,54.7,50.3,99,92,78,30.08,29.99,5,1,9,0.19
2013-1-25,62.0,58.0,55.5,57.0,54.6,49.2,98,89,64,30.05,29.87,6,1,12,0.13
2013-1-26,56.1,55.7,55.3,55.5,55.3,55.0,99,99,98,29.87,29.81,0,0,1,0.27
2013-1-28,60.7,51.0,34.4,41.1,35.1,29.7,94,57,34,30.10,29.99,5,1,9,0.00
2013-1-29,61.4,46.6,35.3,44.3,38.2,32.7,92,75,40,30.13,30.05,6,1,14,0.00
2013-1-30,71.0,50.9,38.7,48.5,42.6,36.7,94,76,41,30.24,30.12,5,1,11,0.00
2013-1-31,79.6,54.3,38.5,49.4,42.1,36.4,95,69,24,30.16,30.01,7,1,13,0.00